Time;durP1;ratioP1;P1;durP2;ratioP2;P2;SDS_P1;SDS_P2;PMS_P1;PMS_P2;Temp;Humidity;BMP_temperature;BMP_pressure;BME280_temperature;BME280_humidity;BME280_pressure;Samples;Min_cycle;Max_cycle;Signal;HPM_P1;HPM_P2
2022/04/25 00:01:46;;;;;;;10.43;5.50;;;;;;;7.91;70.43;100738.41;5032268;28;20049;-69
2022/04/25 00:04:13;;;;;;;9.75;6.53;;;;;;;7.86;70.40;100727.13;5031781;28;20061;-69
2022/04/25 00:06:40;;;;;;;8.43;6.35;;;;;;;7.82;70.58;100729.84;5032422;28;20531;-68
2022/04/25 00:09:08;;;;;;;11.00;6.30;;;;;;;7.81;70.91;100733.34;5031948;28;20133;-68
2022/04/25 00:11:35;;;;;;;9.27;6.00;;;;;;;7.77;71.25;100728.19;5031553;28;20042;-68
2022/04/25 00:14:02;;;;;;;12.00;6.40;;;;;;;7.73;70.76;100738.78;5032149;28;20064;-68
2022/04/25 00:16:29;;;;;;;12.88;6.43;;;;;;;7.66;70.86;100726.66;5031987;28;20046;-67
2022/04/25 00:18:56;;;;;;;9.45;5.80;;;;;;;7.62;71.51;100733.72;5032316;28;20041;-68
2022/04/25 00:21:23;;;;;;;11.70;6.55;;;;;;;7.56;71.25;100737.34;5031691;28;20041;-68
2022/04/25 00:23:51;;;;;;;12.15;6.72;;;;;;;7.51;71.19;100733.06;5032288;28;20046;-68
2022/04/25 00:26:18;;;;;;;7.75;6.35;;;;;;;7.46;71.24;100734.03;5031622;28;20050;-68
2022/04/25 00:28:45;;;;;;;11.02;6.47;;;;;;;7.41;71.73;100738.50;5032031;28;20104;-68
2022/04/25 00:31:13;;;;;;;11.98;6.88;;;;;;;7.37;71.87;100739.47;5031714;28;20042;-69
2022/04/25 00:33:41;;;;;;;12.60;7.30;;;;;;;7.33;72.11;100737.78;5031302;28;20062;-69
2022/04/25 00:36:08;;;;;;;9.73;6.68;;;;;;;7.28;72.07;100740.50;5031808;28;20038;-68
2022/04/25 00:38:35;;;;;;;9.52;6.85;;;;;;;7.25;72.19;100742.31;5030563;28;20088;-69
2022/04/25 00:41:06;;;;;;;12.55;6.80;;;;;;;7.19;72.26;100739.78;5032003;28;20041;-69
2022/04/25 00:43:34;;;;;;;11.73;6.75;;;;;;;7.14;72.50;100739.84;5031578;28;20176;-69
2022/04/25 00:46:02;;;;;;;15.82;6.95;;;;;;;7.10;72.96;100751.31;5031269;28;20042;-69
2022/04/25 00:48:29;;;;;;;10.48;7.15;;;;;;;7.08;73.05;100748.69;5031748;28;20042;-69
2022/04/25 00:50:57;;;;;;;11.00;7.28;;;;;;;7.04;73.20;100748.78;5031803;28;20042;-69
2022/04/25 00:53:25;;;;;;;13.30;7.15;;;;;;;7.03;72.66;100753.16;5046820;28;20582;-68
2022/04/25 00:55:52;;;;;;;10.55;7.55;;;;;;;7.01;73.25;100754.09;5034593;28;20092;-69
2022/04/25 00:58:20;;;;;;;11.10;7.05;;;;;;;6.96;72.80;100751.56;5034878;28;20078;-69
2022/04/25 01:00:47;;;;;;;12.38;7.75;;;;;;;6.91;73.09;100743.75;5034388;28;20076;-69
2022/04/25 01:03:15;;;;;;;11.82;8.05;;;;;;;6.87;72.95;100742.06;5034874;28;20049;-69
2022/04/25 01:05:42;;;;;;;12.02;7.50;;;;;;;6.82;72.96;100743.88;5034930;28;20121;-69
2022/04/25 01:08:09;;;;;;;10.35;7.40;;;;;;;6.79;73.33;100744.81;5034894;28;20089;-68
2022/04/25 01:10:36;;;;;;;10.98;7.32;;;;;;;6.75;73.37;100748.38;5034868;28;20046;-69
2022/04/25 01:13:04;;;;;;;12.55;7.50;;;;;;;6.70;73.48;100742.34;5034137;28;20048;-69
2022/04/25 01:15:31;;;;;;;14.90;7.97;;;;;;;6.66;73.74;100743.28;5034679;28;20042;-68
2022/04/25 01:18:04;;;;;;;12.93;8.27;;;;;;;6.62;73.97;100747.69;5034802;28;20038;-68
2022/04/25 01:20:35;;;;;;;12.13;8.15;;;;;;;6.60;74.31;100740.75;5034775;28;20038;-69
2022/04/25 01:28:40;;;;;;;15.25;8.60;;;;;;;6.46;74.91;100738.34;5035091;28;20042;-68
2022/04/25 01:31:07;;;;;;;12.77;8.85;;;;;;;6.42;75.01;100734.91;5034351;28;20030;-68
2022/04/25 01:33:34;;;;;;;17.55;8.95;;;;;;;6.37;75.40;100734.97;5033983;28;20054;-68
2022/04/25 01:36:02;;;;;;;14.95;8.52;;;;;;;6.36;75.35;100734.97;5034250;28;20048;-69
2022/04/25 01:38:29;;;;;;;13.60;9.25;;;;;;;6.32;75.54;100742.03;5033845;28;20046;-69
2022/04/25 01:41:00;;;;;;;15.88;8.93;;;;;;;6.31;75.62;100736.81;5034496;28;20052;-68
2022/04/25 01:43:28;;;;;;;15.35;9.23;;;;;;;6.28;75.90;100729.00;5034105;28;20038;-68
2022/04/25 01:45:55;;;;;;;13.90;8.70;;;;;;;6.23;75.86;100742.16;5034229;28;20049;-69
2022/04/25 01:48:22;;;;;;;13.73;9.02;;;;;;;6.20;75.95;100739.59;5033632;28;20042;-69
2022/04/25 01:50:49;;;;;;;12.85;8.93;;;;;;;6.17;76.03;100742.25;5034363;28;20046;-68
2022/04/25 01:53:16;;;;;;;14.90;8.63;;;;;;;6.16;76.42;100737.91;5034169;28;20045;-69
2022/04/25 01:55:44;;;;;;;14.73;8.50;;;;;;;6.11;76.50;100735.34;5034230;28;20099;-68
2022/04/25 01:58:12;;;;;;;14.98;8.63;;;;;;;6.08;76.72;100740.59;5034137;28;20089;-69
2022/04/25 02:00:39;;;;;;;14.57;8.77;;;;;;;6.05;76.94;100736.28;5033683;28;20042;-69
2022/04/25 02:03:07;;;;;;;19.15;9.13;;;;;;;6.05;77.66;100740.66;5033410;28;20097;-68
2022/04/25 02:05:34;;;;;;;16.05;8.57;;;;;;;6.01;77.48;100737.19;5033660;28;20204;-68
2022/04/25 02:08:02;;;;;;;12.02;8.93;;;;;;;5.99;78.14;100735.47;5033115;28;20141;-68
2022/04/25 02:10:29;;;;;;;16.70;10.48;;;;;;;5.96;77.72;100736.38;5034121;28;20049;-68
2022/04/25 02:12:56;;;;;;;16.20;9.68;;;;;;;5.95;78.14;100739.03;5034224;28;20468;-68
2022/04/25 02:15:24;;;;;;;13.55;8.60;;;;;;;5.94;78.30;100732.06;5033810;28;20034;-69
2022/04/25 02:17:51;;;;;;;14.75;9.23;;;;;;;5.88;78.39;100723.38;5033330;28;20049;-68
2022/04/25 02:20:18;;;;;;;13.82;9.57;;;;;;;5.86;78.36;100730.38;5033957;28;20053;-68
2022/04/25 02:22:45;;;;;;;17.20;10.38;;;;;;;5.85;78.33;100728.66;5033944;28;20109;-69
2022/04/25 02:25:12;;;;;;;17.88;10.25;;;;;;;5.84;79.15;100728.69;5033751;28;20061;-69
2022/04/25 02:27:40;;;;;;;16.83;10.48;;;;;;;5.85;78.51;100730.41;5033219;28;20045;-69
2022/04/25 02:30:08;;;;;;;16.40;10.20;;;;;;;5.82;78.24;100725.22;5033596;28;20046;-69
2022/04/25 02:32:35;;;;;;;15.38;10.38;;;;;;;5.82;79.13;100735.66;5033263;28;20228;-68
2022/04/25 02:35:02;;;;;;;19.88;10.80;;;;;;;5.82;78.97;100741.78;5033408;28;20046;-67
2022/04/25 02:37:35;;;;;;;16.77;10.57;;;;;;;5.81;79.53;100747.91;5033524;28;20048;-68
2022/04/25 02:40:03;;;;;;;17.02;10.52;;;;;;;5.80;79.41;100740.94;5033485;28;20042;-68
2022/04/25 02:42:30;;;;;;;16.67;10.75;;;;;;;5.81;79.29;100745.28;5033072;28;20038;-68
2022/04/25 02:44:57;;;;;;;16.77;10.38;;;;;;;5.80;79.24;100747.94;5032988;28;20064;-68
2022/04/25 02:47:24;;;;;;;17.52;10.18;;;;;;;5.78;78.88;100739.22;5032833;28;20508;-69
2022/04/25 02:49:51;;;;;;;14.90;10.18;;;;;;;5.75;79.02;100750.56;5033058;28;20046;-68
2022/04/25 02:52:18;;;;;;;18.27;12.15;;;;;;;5.73;78.84;100744.50;5033026;28;20053;-68
2022/04/25 02:54:45;;;;;;;19.98;11.23;;;;;;;5.73;79.31;100747.13;5033676;28;20042;-68
2022/04/25 02:57:12;;;;;;;15.43;10.45;;;;;;;5.73;79.52;100744.50;5032582;28;20132;-69
2022/04/25 02:59:39;;;;;;;19.20;11.05;;;;;;;5.72;79.30;100745.41;5032819;28;20046;-69
2022/04/25 03:02:06;;;;;;;20.23;10.70;;;;;;;5.71;79.58;100744.50;5032808;28;20046;-69
2022/04/25 03:04:34;;;;;;;19.17;11.40;;;;;;;5.70;79.84;100741.94;5033195;28;20041;-69
2022/04/25 03:07:04;;;;;;;19.58;11.48;;;;;;;5.72;80.27;100741.00;5032639;28;20051;-68
2022/04/25 03:09:31;;;;;;;18.13;10.90;;;;;;;5.73;80.08;100741.91;5032559;28;20500;-69
2022/04/25 03:11:58;;;;;;;18.45;11.10;;;;;;;5.72;80.06;100743.63;5032523;28;20073;-69
2022/04/25 03:14:26;;;;;;;16.42;11.05;;;;;;;5.71;80.09;100738.44;5032886;28;20121;-69
2022/04/25 03:16:53;;;;;;;16.77;10.88;;;;;;;5.68;80.26;100736.72;5033329;28;20042;-68
2022/04/25 03:19:20;;;;;;;19.67;11.80;;;;;;;5.66;80.18;100737.59;5032492;28;20075;-69
2022/04/25 03:21:47;;;;;;;15.90;11.23;;;;;;;5.67;80.39;100735.00;5032743;28;20046;-68
2022/04/25 03:24:16;;;;;;;21.52;11.40;;;;;;;5.64;80.40;100742.88;5032776;28;20054;-68
2022/04/25 03:26:42;;;;;;;18.13;11.40;;;;;;;5.63;80.45;100737.66;5032630;28;20112;-68
2022/04/25 03:29:11;;;;;;;18.08;10.75;;;;;;;5.60;80.55;100742.03;5032304;28;20045;-68
2022/04/25 03:31:38;;;;;;;19.13;11.88;;;;;;;5.58;80.37;100735.94;5032563;28;20042;-67
2022/04/25 03:34:05;;;;;;;18.75;12.57;;;;;;;5.59;80.44;100736.84;5032398;28;20045;-69
2022/04/25 03:36:32;;;;;;;21.58;13.20;;;;;;;5.60;80.41;100738.53;5032704;28;20526;-68
2022/04/25 03:38:59;;;;;;;20.13;11.98;;;;;;;5.62;80.28;100735.94;5032888;28;20084;-68
2022/04/25 03:41:30;;;;;;;17.63;12.43;;;;;;;5.64;80.26;100739.41;5032210;28;20049;-68
2022/04/25 03:43:58;;;;;;;17.70;12.70;;;;;;;5.66;80.13;100741.09;5032203;28;20046;-68
2022/04/25 03:46:27;;;;;;;22.98;12.15;;;;;;;5.68;80.13;100747.19;5032372;28;20050;-68
2022/04/25 03:48:54;;;;;;;19.23;12.00;;;;;;;5.69;79.98;100755.88;5032493;28;20068;-67
2022/04/25 03:51:23;;;;;;;22.00;13.30;;;;;;;5.68;79.83;100749.81;5032148;28;20048;-69
2022/04/25 03:53:50;;;;;;;17.70;12.82;;;;;;;5.68;80.18;100757.66;5032178;28;20044;-69
2022/04/25 03:59:05;;;;;;;20.88;12.50;;;;;;;5.74;80.54;100759.34;5032225;28;20054;-68
2022/04/25 04:01:32;;;;;;;17.70;12.63;;;;;;;5.81;80.69;100757.47;5032569;28;20044;-68
2022/04/25 04:04:04;;;;;;;20.23;12.52;;;;;;;5.86;80.73;100760.94;5031557;28;20049;-69
2022/04/25 04:06:36;;;;;;;23.95;13.05;;;;;;;5.89;80.54;100759.13;5032070;28;20622;-68
2022/04/25 04:09:44;;;;;;;19.58;11.95;;;;;;;5.93;80.94;100773.03;5032294;28;20104;-68
2022/04/25 04:11:52;;;;;;;20.17;12.70;;;;;;;5.96;81.36;100767.78;5031858;28;20052;-69
2022/04/25 04:14:19;;;;;;;20.90;12.77;;;;;;;5.99;81.26;100767.78;5032299;28;20053;-68
2022/04/25 04:16:46;;;;;;;19.52;12.77;;;;;;;6.01;81.47;100766.00;5031392;28;20049;-69
2022/04/25 04:19:13;;;;;;;19.17;12.57;;;;;;;6.01;81.02;100760.75;5031618;28;20042;-68
2022/04/25 04:21:40;;;;;;;19.20;12.82;;;;;;;6.00;80.81;100768.63;5032032;28;20530;-68
2022/04/25 04:24:09;;;;;;;19.73;12.82;;;;;;;5.99;81.12;100761.63;5032419;28;20484;-69
2022/04/25 04:26:37;;;;;;;19.50;13.10;;;;;;;5.97;80.75;100769.50;5031821;28;20563;-68
2022/04/25 04:29:04;;;;;;;21.08;13.00;;;;;;;5.97;81.01;100773.88;5032206;28;20064;-69
2022/04/25 04:31:31;;;;;;;20.63;13.80;;;;;;;5.97;80.93;100769.50;5035358;28;20757;-68
2022/04/25 04:33:58;;;;;;;21.58;13.18;;;;;;;5.97;81.06;100773.88;5034317;28;20049;-68
2022/04/25 04:36:26;;;;;;;23.45;14.95;;;;;;;5.97;80.93;100771.25;5035400;28;20042;-68
2022/04/25 04:38:53;;;;;;;19.58;14.50;;;;;;;5.99;80.98;100774.72;5035403;28;20389;-69
2022/04/25 04:41:20;;;;;;;19.83;13.55;;;;;;;6.06;81.56;100782.50;5035296;28;20049;-68
2022/04/25 04:43:47;;;;;;;23.38;13.70;;;;;;;6.19;81.61;100785.84;5035307;28;20108;-68
2022/04/25 04:46:14;;;;;;;20.25;13.82;;;;;;;6.33;81.28;100790.03;5035147;28;20105;-68
2022/04/25 04:48:41;;;;;;;18.88;12.77;;;;;;;6.47;81.65;100787.22;5034953;28;20097;-69
2022/04/25 04:51:08;;;;;;;23.67;13.73;;;;;;;6.57;81.38;100793.19;5035112;28;20041;-68
2022/04/25 04:53:36;;;;;;;21.75;14.05;;;;;;;6.67;80.91;100792.16;5034898;28;20046;-68
2022/04/25 04:56:03;;;;;;;22.45;14.40;;;;;;;6.74;80.72;100801.69;5034944;28;20034;-68
2022/04/25 04:58:33;;;;;;;21.65;13.80;;;;;;;6.78;80.63;100794.63;5034911;28;20465;-68
2022/04/25 05:01:01;;;;;;;23.65;14.63;;;;;;;6.81;80.34;100805.06;5035082;28;20045;-68
2022/04/25 05:03:28;;;;;;;18.70;13.50;;;;;;;6.87;80.35;100806.75;5034423;28;20478;-68
2022/04/25 05:05:56;;;;;;;21.50;13.35;;;;;;;6.92;80.21;100810.13;5035114;28;20053;-69
2022/04/25 05:08:23;;;;;;;24.05;14.25;;;;;;;6.96;80.32;100822.31;5034440;28;20189;-69
2022/04/25 05:10:50;;;;;;;23.33;13.70;;;;;;;7.00;80.17;100821.34;5034883;28;20049;-68
2022/04/25 05:13:17;;;;;;;21.63;14.40;;;;;;;7.05;80.00;100822.16;5034616;28;20121;-69
2022/04/25 05:15:44;;;;;;;25.92;14.00;;;;;;;7.07;80.11;100825.59;5034941;28;20577;-68
2022/04/25 05:18:11;;;;;;;24.08;14.77;;;;;;;7.11;79.75;100831.69;5034783;28;20046;-68
2022/04/25 05:20:38;;;;;;;21.08;13.20;;;;;;;7.16;80.07;100827.22;5034389;28;20053;-68
2022/04/25 05:23:06;;;;;;;22.63;14.35;;;;;;;7.23;79.57;100826.22;5034778;28;20317;-68
2022/04/25 05:25:35;;;;;;;20.55;14.40;;;;;;;7.28;79.36;100829.66;5034309;28;20042;-68
2022/04/25 05:28:03;;;;;;;24.50;14.43;;;;;;;7.36;79.16;100829.53;5034726;28;20050;-68
2022/04/25 05:30:30;;;;;;;22.73;13.48;;;;;;;7.43;79.44;100832.88;5034217;28;20046;-69
2022/04/25 05:33:02;;;;;;;20.45;14.25;;;;;;;7.44;78.97;100830.25;5033697;28;20050;-68
2022/04/25 05:35:33;;;;;;;22.67;14.73;;;;;;;7.47;79.27;100837.19;5034059;28;20128;-68
2022/04/25 05:38:01;;;;;;;23.85;14.27;;;;;;;7.48;79.32;100835.47;5034397;28;20045;-69
2022/04/25 05:40:29;;;;;;;25.30;14.32;;;;;;;7.52;79.32;100842.38;5033403;28;20049;-67
2022/04/25 05:43:02;;;;;;;27.30;14.98;;;;;;;7.55;79.44;100842.31;5033833;28;20038;-68
2022/04/25 05:45:29;;;;;;;23.05;15.02;;;;;;;7.57;79.37;100854.50;5033942;28;20046;-68
2022/04/25 05:47:57;;;;;;;22.58;14.55;;;;;;;7.56;79.54;100852.78;5033998;28;20534;-69
2022/04/25 05:53:14;;;;;;;25.52;15.50;;;;;;;7.55;79.87;100858.06;5033437;28;20056;-68
2022/04/25 05:55:41;;;;;;;23.33;14.50;;;;;;;7.55;80.27;100858.06;5038913;28;20041;-68
2022/04/25 05:58:10;;;;;;;27.20;15.60;;;;;;;7.53;80.87;100854.59;5037976;28;20034;-67
2022/04/25 06:00:37;;;;;;;26.65;16.08;;;;;;;7.48;80.88;100862.53;5038223;28;20080;-68
2022/04/25 06:03:04;;;;;;;22.55;14.63;;;;;;;7.48;81.47;100866.94;5037386;28;20049;-68
2022/04/25 06:05:32;;;;;;;26.00;15.48;;;;;;;7.48;81.50;100862.53;5036875;28;20042;-68
2022/04/25 06:07:59;;;;;;;27.83;15.35;;;;;;;7.49;82.14;100874.78;5034172;28;20045;-69
2022/04/25 06:10:26;;;;;;;26.85;16.05;;;;;;;7.49;81.91;100868.63;5049452;28;20038;-68
2022/04/25 06:12:55;;;;;;;24.02;16.70;;;;;;;7.47;81.95;100868.69;5033723;28;20467;-67
2022/04/25 06:15:24;;;;;;;23.67;15.63;;;;;;;7.45;82.50;100879.22;5033667;28;20511;-68
2022/04/25 06:17:54;;;;;;;24.55;15.63;;;;;;;7.45;82.57;100878.31;5033864;28;20129;-68
2022/04/25 06:20:22;;;;;;;22.33;15.35;;;;;;;7.44;82.91;100889.69;5033606;28;20647;-68
2022/04/25 06:22:58;;;;;;;23.48;16.42;;;;;;;7.43;83.02;100880.97;5033864;28;20050;-68
2022/04/25 06:25:27;;;;;;;25.13;15.95;;;;;;;7.44;82.86;100890.59;5033897;28;20034;-67
2022/04/25 06:28:00;;;;;;;24.75;16.65;;;;;;;7.45;82.89;100886.19;5033654;28;20121;-67
2022/04/25 06:30:29;;;;;;;27.38;17.77;;;;;;;7.49;82.86;100890.50;5033569;28;20138;-67
2022/04/25 06:32:58;;;;;;;28.77;17.33;;;;;;;7.56;83.09;100893.91;5032340;28;20578;-67
2022/04/25 06:35:26;;;;;;;26.52;16.23;;;;;;;7.60;83.13;100893.81;5033950;28;20037;-67
2022/04/25 06:37:54;;;;;;;26.85;17.10;;;;;;;7.63;82.88;100889.41;5033603;28;20046;-68
2022/04/25 06:40:21;;;;;;;23.10;16.70;;;;;;;7.65;82.97;100895.47;5033479;28;20049;-67
2022/04/25 06:42:51;;;;;;;24.45;17.13;;;;;;;7.69;82.79;100898.03;5033303;28;20044;-68
2022/04/25 06:45:18;;;;;;;28.60;18.40;;;;;;;7.74;82.91;100901.44;5032896;28;20137;-66
2022/04/25 06:47:45;;;;;;;26.42;17.20;;;;;;;7.82;83.06;100896.06;5032737;28;20092;-68
2022/04/25 06:50:12;;;;;;;23.50;17.35;;;;;;;7.87;83.08;100898.63;5032859;28;20049;-68
2022/04/25 06:52:40;;;;;;;25.20;17.42;;;;;;;7.88;82.75;100898.56;5032525;28;20525;-67
2022/04/25 06:55:07;;;;;;;23.67;16.90;;;;;;;7.93;82.77;100901.13;5033275;28;20034;-68
2022/04/25 06:57:37;;;;;;;30.52;17.60;;;;;;;7.93;82.66;100904.63;5033344;28;20042;-68
2022/04/25 07:00:11;;;;;;;26.42;18.35;;;;;;;7.97;83.01;100902.81;5032373;28;20046;-68
2022/04/25 07:02:59;;;;;;;27.80;17.95;;;;;;;8.00;83.06;100912.38;5032770;28;20046;-68
2022/04/25 07:05:26;;;;;;;27.42;18.90;;;;;;;8.06;82.90;100917.50;5032756;28;20049;-67
2022/04/25 07:07:53;;;;;;;26.50;18.05;;;;;;;8.16;83.02;100912.94;5033033;28;20090;-67
2022/04/25 07:10:21;;;;;;;25.20;17.83;;;;;;;8.24;83.12;100917.16;5032636;28;20077;-68
2022/04/25 07:12:48;;;;;;;32.15;19.17;;;;;;;8.22;82.82;100911.09;5032899;28;20046;-67
2022/04/25 07:15:15;;;;;;;24.85;18.10;;;;;;;8.21;82.79;100913.72;5033127;28;20120;-68
2022/04/25 07:17:46;;;;;;;27.38;19.17;;;;;;;8.23;82.83;100920.69;5032884;28;20532;-68
2022/04/25 07:20:13;;;;;;;35.90;21.98;;;;;;;8.24;82.65;100918.91;5032754;28;20037;-68
2022/04/25 07:30:58;;;;;;;34.08;20.50;;;;;;;8.12;83.20;100927.03;5032655;28;20072;-68
2022/04/25 07:33:26;;;;;;;34.45;21.38;;;;;;;8.11;82.94;100922.66;5032031;28;20050;-68
2022/04/25 07:35:53;;;;;;;32.13;20.73;;;;;;;8.12;83.00;100929.66;5032447;28;20042;-67
2022/04/25 07:38:20;;;;;;;28.85;20.77;;;;;;;8.14;82.92;100935.75;5032035;28;20089;-68
2022/04/25 07:40:47;;;;;;;32.40;20.80;;;;;;;8.15;83.11;100937.47;5032862;28;20042;-67
2022/04/25 07:43:15;;;;;;;35.92;20.67;;;;;;;8.13;83.30;100942.78;5032639;28;20038;-69
2022/04/25 07:45:42;;;;;;;30.58;21.13;;;;;;;8.07;83.21;100938.50;5030961;28;20050;-68
2022/04/25 07:48:09;;;;;;;34.25;22.08;;;;;;;8.00;83.42;100939.47;5047573;28;20050;-67
2022/04/25 07:50:37;;;;;;;30.70;21.00;;;;;;;7.96;83.60;100953.56;5032331;28;20505;-67
2022/04/25 07:53:04;;;;;;;32.80;22.67;;;;;;;7.91;83.66;100956.28;5032071;28;20096;-69
2022/04/25 07:55:32;;;;;;;34.17;21.17;;;;;;;7.87;83.92;100954.59;5032471;28;20038;-68
2022/04/25 07:57:59;;;;;;;34.25;22.15;;;;;;;7.88;84.00;100953.69;5032113;28;20045;-68
2022/04/25 08:00:27;;;;;;;35.97;23.13;;;;;;;7.89;84.11;100962.44;5032149;28;20049;-68
2022/04/25 08:02:54;;;;;;;32.85;22.33;;;;;;;7.84;84.19;100965.13;5031971;28;20050;-68
2022/04/25 08:05:21;;;;;;;33.20;22.65;;;;;;;7.80;84.02;100973.09;5031162;28;20790;-67
2022/04/25 08:07:50;;;;;;;33.35;21.52;;;;;;;7.75;84.10;100974.03;5032042;28;20049;-68
2022/04/25 08:10:17;;;;;;;32.97;20.92;;;;;;;7.69;83.87;100957.53;5032252;28;20104;-67
2022/04/25 08:18:16;;;;;;;33.72;21.77;;;;;;;7.66;84.75;100987.31;5031709;28;20900;-68
2022/04/25 08:20:44;;;;;;;34.70;21.38;;;;;;;7.71;84.92;100982.84;5031789;28;20050;-68
2022/04/25 08:23:13;;;;;;;35.58;23.00;;;;;;;7.73;84.30;100977.59;5031759;28;20104;-67
2022/04/25 08:25:42;;;;;;;33.67;21.90;;;;;;;7.80;84.38;100989.72;5032128;28;20143;-68
2022/04/25 08:28:10;;;;;;;32.10;21.63;;;;;;;7.83;84.01;100989.69;5031734;28;20058;-67
2022/04/25 08:30:38;;;;;;;38.10;23.73;;;;;;;7.88;84.18;100992.22;5031348;28;20072;-67
2022/04/25 08:33:08;;;;;;;31.17;20.40;;;;;;;7.89;83.57;100994.81;5031677;28;20041;-68
2022/04/25 08:35:35;;;;;;;30.80;19.63;;;;;;;7.92;83.23;100991.25;5031382;28;20125;-68
2022/04/25 08:38:02;;;;;;;31.55;21.63;;;;;;;7.90;83.09;100993.03;5031623;28;20046;-68
2022/04/25 08:40:30;;;;;;;33.00;22.25;;;;;;;7.98;83.14;101000.78;5031910;28;20038;-68
2022/04/25 08:42:58;;;;;;;35.05;21.88;;;;;;;8.10;83.00;100997.97;5031397;28;20040;-68
2022/04/25 08:45:32;;;;;;;35.35;22.02;;;;;;;8.32;82.76;100995.81;5031754;28;20538;-67
2022/04/25 08:48:03;;;;;;;35.45;22.17;;;;;;;8.50;81.84;100999.88;5032093;28;20056;-67
2022/04/25 08:50:30;;;;;;;32.45;21.90;;;;;;;8.60;81.29;100999.72;5031745;28;20070;-67
2022/04/25 08:52:59;;;;;;;32.60;20.98;;;;;;;8.64;80.34;101010.13;5031598;28;20045;-67
2022/04/25 08:55:27;;;;;;;34.75;22.88;;;;;;;8.68;80.47;101005.69;5031885;28;20042;-67
2022/04/25 08:57:56;;;;;;;36.80;22.70;;;;;;;8.73;80.67;101006.47;5031243;28;20046;-68
2022/04/25 09:00:23;;;;;;;34.55;22.77;;;;;;;8.79;81.18;101013.38;5031255;28;20042;-68
2022/04/25 09:02:52;;;;;;;33.15;22.08;;;;;;;8.81;81.12;101015.06;5031429;28;20042;-67
2022/04/25 09:05:19;;;;;;;33.67;22.00;;;;;;;8.82;80.59;101016.78;5030638;28;20034;-67
2022/04/25 09:07:46;;;;;;;34.60;22.63;;;;;;;8.86;80.59;101022.84;5031064;28;20053;-68
2022/04/25 09:10:17;;;;;;;31.20;20.92;;;;;;;8.93;80.06;101027.06;5031696;28;20125;-67
2022/04/25 09:12:49;;;;;;;30.52;19.25;;;;;;;8.82;79.42;101029.06;5031386;28;20042;-67
2022/04/25 09:15:21;;;;;;;32.20;21.40;;;;;;;8.75;80.27;101027.44;5032091;28;20526;-67
2022/04/25 09:17:56;;;;;;;;;;;;;;;8.70;79.79;101032.81;5035302;28;20391;-66
2022/04/25 09:20:43;;;;;;;34.58;22.83;;;;;;;8.76;81.17;101027.41;5034603;28;19932;-68
2022/04/25 09:23:21;;;;;;;39.03;25.02;;;;;;;8.90;81.47;101034.16;5034542;28;20049;-69
2022/04/25 09:26:08;;;;;;;37.47;22.73;;;;;;;9.07;80.78;101031.19;5034787;28;20541;-67
2022/04/25 09:28:51;;;;;;;35.83;23.33;;;;;;;9.09;79.76;101032.03;5034133;28;20436;-68
2022/04/25 09:31:22;;;;;;;33.83;21.48;;;;;;;9.07;79.25;101039.09;5034011;28;20061;-68
2022/04/25 09:33:49;;;;;;;35.78;22.45;;;;;;;9.06;79.57;101037.34;5034159;28;20175;-67
2022/04/25 09:36:17;;;;;;;35.60;22.98;;;;;;;9.12;79.75;101038.09;5034452;28;20606;-68
2022/04/25 09:38:45;;;;;;;35.30;22.98;;;;;;;9.14;79.71;101035.41;5034065;28;20042;-67
2022/04/25 09:41:16;;;;;;;33.17;20.35;;;;;;;9.16;78.58;101044.16;5034329;28;20112;-67
2022/04/25 09:43:47;;;;;;;33.13;21.33;;;;;;;9.17;78.45;101045.88;5034255;28;20108;-67
2022/04/25 09:46:17;;;;;;;31.77;20.25;;;;;;;9.26;78.17;101048.31;5033869;28;20057;-68
2022/04/25 09:49:01;;;;;;;30.65;19.42;;;;;;;9.30;77.33;101057.00;5032277;28;20516;-67
2022/04/25 09:51:29;;;;;;;35.95;20.63;;;;;;;9.29;77.57;101048.25;5033928;28;20084;-67
2022/04/25 09:53:57;;;;;;;31.90;20.15;;;;;;;9.23;77.45;101056.25;5034360;28;20042;-68
2022/04/25 09:56:30;;;;;;;33.70;22.13;;;;;;;9.30;78.99;101054.38;5034074;28;20050;-67
2022/04/25 09:59:05;;;;;;;35.42;21.70;;;;;;;9.43;77.92;101055.84;5033610;28;20044;-67
2022/04/25 10:01:39;;;;;;;33.25;21.00;;;;;;;9.58;77.12;101062.53;5033956;28;20410;-67
2022/04/25 10:04:34;;;;;;;33.83;20.58;;;;;;;9.74;77.30;101059.53;5033785;28;20050;-67
2022/04/25 10:07:04;;;;;;;31.40;20.60;;;;;;;9.90;77.59;101071.47;5033226;28;20042;-67
2022/04/25 10:09:34;;;;;;;31.15;20.55;;;;;;;10.02;77.56;101067.66;5033982;28;20263;-66
2022/04/25 10:12:05;;;;;;;30.98;20.52;;;;;;;10.02;76.48;101066.81;5033875;28;20042;-67
2022/04/25 10:14:32;;;;;;;27.23;18.33;;;;;;;9.93;76.23;101068.72;5033511;28;20129;-67
2022/04/25 10:17:00;;;;;;;28.52;17.63;;;;;;;9.93;75.62;101067.88;5034215;28;20045;-67
2022/04/25 10:19:32;;;;;;;27.77;18.20;;;;;;;9.82;75.60;101076.00;5033728;28;20500;-67
2022/04/25 10:22:00;;;;;;;32.70;20.95;;;;;;;9.82;77.29;101081.28;5033460;28;20034;-68
2022/04/25 10:24:27;;;;;;;30.77;19.98;;;;;;;9.84;77.02;101079.47;5033932;28;20108;-67
2022/04/25 10:26:57;;;;;;;28.58;18.40;;;;;;;9.77;76.18;101083.16;5032413;28;20049;-68
2022/04/25 10:29:34;;;;;;;28.08;18.58;;;;;;;9.72;76.34;101074.50;5033456;28;20464;-67
2022/04/25 10:32:04;;;;;;;28.75;19.20;;;;;;;9.74;77.15;101083.22;5033207;28;20382;-68
2022/04/25 10:35:04;;;;;;;34.38;22.20;;;;;;;9.86;78.30;101082.09;5033365;28;20508;-68
2022/04/25 10:37:37;;;;;;;28.00;19.63;;;;;;;9.91;77.69;101089.00;5033144;28;20042;-67
2022/04/25 10:40:08;;;;;;;25.85;18.02;;;;;;;9.89;76.79;101089.91;5033674;28;20053;-68
2022/04/25 10:46:02;;;;;;;30.33;18.90;;;;;;;9.68;77.48;101093.91;5037083;28;20832;-68
2022/04/25 10:49:06;;;;;;;31.42;19.38;;;;;;;9.58;77.87;101095.88;5048371;28;20073;-68
2022/04/25 10:51:38;;;;;;;29.30;18.67;;;;;;;9.48;77.62;101095.22;5033074;28;20096;-68
2022/04/25 10:54:08;;;;;;;30.65;19.10;;;;;;;9.40;77.86;101098.00;5033281;28;20583;-67
2022/04/25 10:56:56;;;;;;;28.52;19.13;;;;;;;9.40;78.30;101105.91;5032550;28;20046;-67
2022/04/25 10:59:27;;;;;;;26.23;18.02;;;;;;;9.41;77.86;101107.63;5032956;28;20042;-67
2022/04/25 11:01:59;;;;;;;26.45;17.35;;;;;;;9.38;77.10;101098.94;5033166;28;20462;-67
2022/04/25 11:04:26;;;;;;;29.50;18.73;;;;;;;9.47;77.73;101104.88;5032895;28;20840;-67
2022/04/25 11:07:22;;;;;;;28.33;19.15;;;;;;;9.56;78.06;101101.19;5033323;28;20049;-67
2022/04/25 11:09:51;;;;;;;34.58;20.42;;;;;;;9.64;78.89;101099.25;5032666;28;20100;-68
2022/04/25 11:12:19;;;;;;;31.92;19.48;;;;;;;9.70;78.87;101105.28;5032537;28;20554;-67
2022/04/25 11:14:58;;;;;;;31.75;18.77;;;;;;;9.75;79.64;101108.66;5032374;28;20046;-67
2022/04/25 11:17:26;;;;;;;30.52;20.73;;;;;;;9.81;79.50;101107.66;5032588;28;20046;-67
2022/04/25 11:19:55;;;;;;;24.77;18.23;;;;;;;9.86;78.09;101109.28;5032919;28;20050;-67
2022/04/25 11:22:40;;;;;;;30.58;19.58;;;;;;;9.86;78.47;101117.19;5032802;28;20042;-68
2022/04/25 11:25:23;;;;;;;33.17;20.02;;;;;;;9.85;78.47;101118.09;5032664;28;20042;-68
2022/04/25 11:28:07;;;;;;;28.98;19.60;;;;;;;9.85;79.16;101117.22;5032341;28;20050;-68
2022/04/25 11:30:35;;;;;;;25.95;19.55;;;;;;;9.93;79.74;101120.53;5032525;28;20054;-67
2022/04/25 11:33:08;;;;;;;31.98;19.98;;;;;;;10.18;79.91;101115.56;5032328;28;20061;-68
2022/04/25 11:35:42;;;;;;;28.58;19.35;;;;;;;10.52;78.31;101112.13;5032733;28;20073;-67
2022/04/25 11:38:09;;;;;;;24.00;16.77;;;;;;;10.77;76.86;101110.63;5031466;28;20697;-68
2022/04/25 11:40:38;;;;;;;23.63;17.27;;;;;;;10.92;76.39;101122.53;5031768;28;20092;-68
2022/04/25 11:43:06;;;;;;;25.98;17.02;;;;;;;11.08;75.09;101117.69;5032503;28;20504;-67
2022/04/25 11:45:33;;;;;;;23.58;15.68;;;;;;;11.08;72.95;101120.34;5032905;28;20038;-67
2022/04/25 11:48:00;;;;;;;21.10;16.00;;;;;;;10.96;73.98;101119.75;5032282;28;20398;-68
2022/04/25 11:50:28;;;;;;;24.88;15.93;;;;;;;10.82;73.86;101119.25;5032304;28;20045;-67
2022/04/25 11:52:56;;;;;;;23.25;16.52;;;;;;;10.68;75.31;101127.53;5032434;28;20050;-68
2022/04/25 11:55:33;;;;;;;23.88;15.90;;;;;;;10.52;74.22;101130.59;5032072;28;20034;-67
2022/04/25 11:58:02;;;;;;;24.70;14.77;;;;;;;10.33;74.04;101132.78;5032615;28;20049;-67